sensor_id;sensor_type;location;lat;lon;timestamp;P1;durP1;ratioP1;P2;durP2;ratioP2
25615;SDS011;13482;48.234;13.006;2023-08-07T00:02:12;1.00;;;0.40;;
25615;SDS011;13482;48.234;13.006;2023-08-07T00:04:39;1.50;;;0.50;;
25615;SDS011;13482;48.234;13.006;2023-08-07T00:07:06;0.93;;;0.55;;
25615;SDS011;13482;48.234;13.006;2023-08-07T00:09:34;1.45;;;0.63;;
25615;SDS011;13482;48.234;13.006;2023-08-07T00:12:01;0.90;;;0.45;;
25615;SDS011;13482;48.234;13.006;2023-08-07T00:14:30;0.77;;;0.40;;
25615;SDS011;13482;48.234;13.006;2023-08-07T00:16:57;1.80;;;0.50;;
25615;SDS011;13482;48.234;13.006;2023-08-07T00:19:24;1.42;;;0.60;;
25615;SDS011;13482;48.234;13.006;2023-08-07T00:21:52;0.55;;;0.40;;
25615;SDS011;13482;48.234;13.006;2023-08-07T00:24:20;1.42;;;0.50;;
25615;SDS011;13482;48.234;13.006;2023-08-07T00:26:48;1.10;;;0.43;;
25615;SDS011;13482;48.234;13.006;2023-08-07T00:29:15;0.98;;;0.60;;
25615;SDS011;13482;48.234;13.006;2023-08-07T00:31:42;1.13;;;0.55;;
25615;SDS011;13482;48.234;13.006;2023-08-07T00:34:10;1.00;;;0.60;;
25615;SDS011;13482;48.234;13.006;2023-08-07T00:36:37;1.13;;;0.50;;
25615;SDS011;13482;48.234;13.006;2023-08-07T00:39:04;2.35;;;0.90;;
25615;SDS011;13482;48.234;13.006;2023-08-07T00:41:32;1.63;;;0.65;;
25615;SDS011;13482;48.234;13.006;2023-08-07T00:44:00;0.88;;;0.50;;
25615;SDS011;13482;48.234;13.006;2023-08-07T00:46:27;1.17;;;0.50;;
25615;SDS011;13482;48.234;13.006;2023-08-07T00:48:56;1.80;;;0.70;;
25615;SDS011;13482;48.234;13.006;2023-08-07T00:51:24;0.88;;;0.55;;
25615;SDS011;13482;48.234;13.006;2023-08-07T00:53:51;1.05;;;0.47;;
25615;SDS011;13482;48.234;13.006;2023-08-07T00:56:19;1.10;;;0.55;;
25615;SDS011;13482;48.234;13.006;2023-08-07T00:58:48;1.38;;;0.60;;
25615;SDS011;13482;48.234;13.006;2023-08-07T01:01:17;1.70;;;0.60;;
25615;SDS011;13482;48.234;13.006;2023-08-07T01:03:44;2.17;;;0.60;;
25615;SDS011;13482;48.234;13.006;2023-08-07T01:06:12;1.63;;;0.60;;
25615;SDS011;13482;48.234;13.006;2023-08-07T01:08:39;1.02;;;0.52;;
25615;SDS011;13482;48.234;13.006;2023-08-07T01:17:28;0.68;;;0.40;;
25615;SDS011;13482;48.234;13.006;2023-08-07T01:19:56;0.88;;;0.40;;
25615;SDS011;13482;48.234;13.006;2023-08-07T01:22:24;1.30;;;0.57;;
25615;SDS011;13482;48.234;13.006;2023-08-07T01:24:55;0.85;;;0.45;;
25615;SDS011;13482;48.234;13.006;2023-08-07T01:27:30;1.10;;;0.47;;
25615;SDS011;13482;48.234;13.006;2023-08-07T01:35:41;0.75;;;0.55;;
25615;SDS011;13482;48.234;13.006;2023-08-07T01:38:11;1.25;;;0.52;;
25615;SDS011;13482;48.234;13.006;2023-08-07T01:40:40;1.30;;;0.70;;
25615;SDS011;13482;48.234;13.006;2023-08-07T01:43:08;0.88;;;0.50;;
25615;SDS011;13482;48.234;13.006;2023-08-07T01:45:36;1.13;;;0.52;;
25615;SDS011;13482;48.234;13.006;2023-08-07T01:48:04;0.90;;;0.50;;
25615;SDS011;13482;48.234;13.006;2023-08-07T01:50:31;1.08;;;0.50;;
25615;SDS011;13482;48.234;13.006;2023-08-07T01:52:59;0.80;;;0.40;;
25615;SDS011;13482;48.234;13.006;2023-08-07T01:55:29;2.28;;;0.52;;
25615;SDS011;13482;48.234;13.006;2023-08-07T01:57:57;1.08;;;0.43;;
25615;SDS011;13482;48.234;13.006;2023-08-07T02:00:24;0.98;;;0.40;;
25615;SDS011;13482;48.234;13.006;2023-08-07T02:02:52;1.55;;;0.50;;
25615;SDS011;13482;48.234;13.006;2023-08-07T02:05:19;0.60;;;0.40;;
25615;SDS011;13482;48.234;13.006;2023-08-07T02:07:47;0.75;;;0.30;;
25615;SDS011;13482;48.234;13.006;2023-08-07T02:10:14;1.95;;;0.57;;
25615;SDS011;13482;48.234;13.006;2023-08-07T02:12:41;1.25;;;0.60;;
25615;SDS011;13482;48.234;13.006;2023-08-07T02:15:09;0.75;;;0.47;;
25615;SDS011;13482;48.234;13.006;2023-08-07T02:17:36;1.15;;;0.50;;
25615;SDS011;13482;48.234;13.006;2023-08-07T02:20:08;0.60;;;0.40;;
25615;SDS011;13482;48.234;13.006;2023-08-07T02:22:36;2.13;;;0.60;;
25615;SDS011;13482;48.234;13.006;2023-08-07T02:25:04;0.93;;;0.50;;
25615;SDS011;13482;48.234;13.006;2023-08-07T02:27:32;1.52;;;0.55;;
25615;SDS011;13482;48.234;13.006;2023-08-07T02:29:59;0.73;;;0.40;;
25615;SDS011;13482;48.234;13.006;2023-08-07T02:32:29;2.35;;;0.50;;
25615;SDS011;13482;48.234;13.006;2023-08-07T02:34:57;1.25;;;0.45;;
25615;SDS011;13482;48.234;13.006;2023-08-07T02:37:25;0.73;;;0.40;;
25615;SDS011;13482;48.234;13.006;2023-08-07T02:39:52;0.95;;;0.43;;
25615;SDS011;13482;48.234;13.006;2023-08-07T02:42:20;0.90;;;0.47;;
25615;SDS011;13482;48.234;13.006;2023-08-07T02:44:48;1.00;;;0.50;;
25615;SDS011;13482;48.234;13.006;2023-08-07T02:47:15;1.23;;;0.40;;
25615;SDS011;13482;48.234;13.006;2023-08-07T02:49:43;0.60;;;0.40;;
25615;SDS011;13482;48.234;13.006;2023-08-07T02:52:10;0.75;;;0.45;;
25615;SDS011;13482;48.234;13.006;2023-08-07T02:54:38;1.05;;;0.40;;
25615;SDS011;13482;48.234;13.006;2023-08-07T02:57:05;1.08;;;0.45;;
25615;SDS011;13482;48.234;13.006;2023-08-07T02:59:32;1.38;;;0.60;;
25615;SDS011;13482;48.234;13.006;2023-08-07T03:02:00;1.40;;;0.52;;
25615;SDS011;13482;48.234;13.006;2023-08-07T03:04:27;0.50;;;0.30;;
25615;SDS011;13482;48.234;13.006;2023-08-07T03:06:54;1.15;;;0.60;;
25615;SDS011;13482;48.234;13.006;2023-08-07T03:09:22;0.70;;;0.50;;
25615;SDS011;13482;48.234;13.006;2023-08-07T03:11:50;1.17;;;0.40;;
25615;SDS011;13482;48.234;13.006;2023-08-07T03:14:17;0.70;;;0.40;;
25615;SDS011;13482;48.234;13.006;2023-08-07T03:16:45;0.75;;;0.43;;
25615;SDS011;13482;48.234;13.006;2023-08-07T03:19:13;0.45;;;0.30;;
25615;SDS011;13482;48.234;13.006;2023-08-07T03:21:40;1.35;;;0.30;;
25615;SDS011;13482;48.234;13.006;2023-08-07T03:24:08;1.17;;;0.40;;
25615;SDS011;13482;48.234;13.006;2023-08-07T03:26:38;0.90;;;0.40;;
25615;SDS011;13482;48.234;13.006;2023-08-07T03:29:05;0.80;;;0.40;;
25615;SDS011;13482;48.234;13.006;2023-08-07T03:31:33;1.08;;;0.40;;
25615;SDS011;13482;48.234;13.006;2023-08-07T03:34:00;1.55;;;0.50;;
25615;SDS011;13482;48.234;13.006;2023-08-07T03:36:28;1.15;;;0.50;;
25615;SDS011;13482;48.234;13.006;2023-08-07T03:38:55;1.05;;;0.60;;
25615;SDS011;13482;48.234;13.006;2023-08-07T03:41:22;0.80;;;0.45;;
25615;SDS011;13482;48.234;13.006;2023-08-07T03:43:50;1.33;;;0.65;;
25615;SDS011;13482;48.234;13.006;2023-08-07T03:46:17;1.30;;;0.60;;
25615;SDS011;13482;48.234;13.006;2023-08-07T03:48:44;1.02;;;0.52;;
25615;SDS011;13482;48.234;13.006;2023-08-07T03:51:12;1.05;;;0.50;;
25615;SDS011;13482;48.234;13.006;2023-08-07T03:53:41;1.77;;;0.70;;
25615;SDS011;13482;48.234;13.006;2023-08-07T03:56:08;1.05;;;0.50;;
25615;SDS011;13482;48.234;13.006;2023-08-07T03:58:36;1.77;;;0.60;;
25615;SDS011;13482;48.234;13.006;2023-08-07T04:01:04;1.55;;;0.60;;
25615;SDS011;13482;48.234;13.006;2023-08-07T04:03:31;1.45;;;0.60;;
25615;SDS011;13482;48.234;13.006;2023-08-07T04:05:59;1.15;;;0.40;;
25615;SDS011;13482;48.234;13.006;2023-08-07T04:08:29;2.42;;;0.60;;
25615;SDS011;13482;48.234;13.006;2023-08-07T04:11:01;2.25;;;0.80;;
25615;SDS011;13482;48.234;13.006;2023-08-07T04:13:30;1.58;;;0.70;;
25615;SDS011;13482;48.234;13.006;2023-08-07T04:15:58;2.35;;;0.90;;
25615;SDS011;13482;48.234;13.006;2023-08-07T04:18:30;1.23;;;0.60;;
25615;SDS011;13482;48.234;13.006;2023-08-07T04:21:00;2.33;;;0.93;;
25615;SDS011;13482;48.234;13.006;2023-08-07T04:23:28;1.63;;;0.80;;
25615;SDS011;13482;48.234;13.006;2023-08-07T04:25:58;2.65;;;0.90;;
25615;SDS011;13482;48.234;13.006;2023-08-07T04:28:29;2.45;;;0.75;;
25615;SDS011;13482;48.234;13.006;2023-08-07T04:30:56;1.63;;;0.73;;
25615;SDS011;13482;48.234;13.006;2023-08-07T04:33:24;1.33;;;0.55;;
25615;SDS011;13482;48.234;13.006;2023-08-07T04:35:52;1.30;;;0.68;;
25615;SDS011;13482;48.234;13.006;2023-08-07T04:38:19;2.50;;;0.63;;
25615;SDS011;13482;48.234;13.006;2023-08-07T04:40:47;1.00;;;0.50;;
25615;SDS011;13482;48.234;13.006;2023-08-07T04:43:17;1.30;;;0.50;;
25615;SDS011;13482;48.234;13.006;2023-08-07T04:45:48;1.08;;;0.52;;
25615;SDS011;13482;48.234;13.006;2023-08-07T04:48:15;1.20;;;0.60;;
25615;SDS011;13482;48.234;13.006;2023-08-07T04:50:44;1.33;;;0.70;;
25615;SDS011;13482;48.234;13.006;2023-08-07T04:53:12;1.30;;;0.60;;
25615;SDS011;13482;48.234;13.006;2023-08-07T04:55:39;1.17;;;0.52;;
25615;SDS011;13482;48.234;13.006;2023-08-07T04:58:06;2.00;;;0.80;;
25615;SDS011;13482;48.234;13.006;2023-08-07T05:00:35;1.05;;;0.60;;
25615;SDS011;13482;48.234;13.006;2023-08-07T05:03:03;2.13;;;0.75;;
25615;SDS011;13482;48.234;13.006;2023-08-07T05:05:30;1.80;;;0.60;;
25615;SDS011;13482;48.234;13.006;2023-08-07T05:07:59;1.00;;;0.70;;
25615;SDS011;13482;48.234;13.006;2023-08-07T05:10:26;1.27;;;0.77;;
25615;SDS011;13482;48.234;13.006;2023-08-07T05:12:54;1.30;;;0.60;;
25615;SDS011;13482;48.234;13.006;2023-08-07T05:15:22;2.53;;;0.70;;
25615;SDS011;13482;48.234;13.006;2023-08-07T05:17:52;2.05;;;0.70;;
25615;SDS011;13482;48.234;13.006;2023-08-07T05:20:20;1.35;;;0.70;;
25615;SDS011;13482;48.234;13.006;2023-08-07T05:22:47;1.27;;;0.70;;
25615;SDS011;13482;48.234;13.006;2023-08-07T05:25:15;1.77;;;0.60;;
25615;SDS011;13482;48.234;13.006;2023-08-07T05:27:45;1.10;;;0.70;;
25615;SDS011;13482;48.234;13.006;2023-08-07T05:30:13;1.20;;;0.60;;
25615;SDS011;13482;48.234;13.006;2023-08-07T05:32:41;2.25;;;0.60;;
25615;SDS011;13482;48.234;13.006;2023-08-07T05:35:09;1.50;;;0.90;;
25615;SDS011;13482;48.234;13.006;2023-08-07T05:37:37;2.00;;;0.95;;
25615;SDS011;13482;48.234;13.006;2023-08-07T05:40:05;2.13;;;0.90;;
25615;SDS011;13482;48.234;13.006;2023-08-07T05:42:33;1.25;;;0.70;;
25615;SDS011;13482;48.234;13.006;2023-08-07T05:45:01;1.90;;;0.90;;
25615;SDS011;13482;48.234;13.006;2023-08-07T05:47:31;1.60;;;0.68;;
25615;SDS011;13482;48.234;13.006;2023-08-07T05:49:59;1.40;;;0.65;;
25615;SDS011;13482;48.234;13.006;2023-08-07T05:52:27;2.38;;;0.80;;
25615;SDS011;13482;48.234;13.006;2023-08-07T05:54:54;1.45;;;0.77;;
25615;SDS011;13482;48.234;13.006;2023-08-07T05:57:22;1.25;;;0.73;;
25615;SDS011;13482;48.234;13.006;2023-08-07T05:59:49;1.70;;;0.80;;
25615;SDS011;13482;48.234;13.006;2023-08-07T06:02:17;1.20;;;0.65;;
25615;SDS011;13482;48.234;13.006;2023-08-07T06:04:45;1.92;;;0.88;;
25615;SDS011;13482;48.234;13.006;2023-08-07T06:07:13;1.67;;;0.93;;
25615;SDS011;13482;48.234;13.006;2023-08-07T06:09:41;1.10;;;0.68;;
25615;SDS011;13482;48.234;13.006;2023-08-07T06:12:08;1.85;;;0.88;;
25615;SDS011;13482;48.234;13.006;2023-08-07T06:14:36;1.77;;;0.90;;
25615;SDS011;13482;48.234;13.006;2023-08-07T06:17:05;1.88;;;0.80;;
25615;SDS011;13482;48.234;13.006;2023-08-07T06:19:32;1.63;;;0.70;;
25615;SDS011;13482;48.234;13.006;2023-08-07T06:22:00;1.45;;;0.70;;
25615;SDS011;13482;48.234;13.006;2023-08-07T06:24:28;1.55;;;0.90;;
25615;SDS011;13482;48.234;13.006;2023-08-07T06:26:55;1.58;;;0.80;;
25615;SDS011;13482;48.234;13.006;2023-08-07T06:29:23;2.53;;;0.60;;
25615;SDS011;13482;48.234;13.006;2023-08-07T06:31:50;2.20;;;0.85;;
25615;SDS011;13482;48.234;13.006;2023-08-07T06:34:18;2.50;;;0.80;;
25615;SDS011;13482;48.234;13.006;2023-08-07T06:36:46;2.15;;;0.80;;
25615;SDS011;13482;48.234;13.006;2023-08-07T06:39:13;1.15;;;0.70;;
25615;SDS011;13482;48.234;13.006;2023-08-07T06:41:41;2.08;;;0.90;;
25615;SDS011;13482;48.234;13.006;2023-08-07T06:44:08;1.20;;;0.60;;
25615;SDS011;13482;48.234;13.006;2023-08-07T06:46:36;2.03;;;0.70;;
25615;SDS011;13482;48.234;13.006;2023-08-07T06:49:03;1.42;;;0.90;;
25615;SDS011;13482;48.234;13.006;2023-08-07T06:51:31;1.92;;;0.60;;
25615;SDS011;13482;48.234;13.006;2023-08-07T06:53:58;2.10;;;0.70;;
25615;SDS011;13482;48.234;13.006;2023-08-07T06:56:26;1.27;;;0.60;;
25615;SDS011;13482;48.234;13.006;2023-08-07T06:58:54;1.75;;;0.90;;
25615;SDS011;13482;48.234;13.006;2023-08-07T07:01:22;1.48;;;0.80;;
25615;SDS011;13482;48.234;13.006;2023-08-07T07:03:50;1.88;;;0.80;;
25615;SDS011;13482;48.234;13.006;2023-08-07T07:06:19;1.58;;;0.90;;
25615;SDS011;13482;48.234;13.006;2023-08-07T07:08:47;1.92;;;0.77;;
25615;SDS011;13482;48.234;13.006;2023-08-07T07:11:15;1.73;;;1.00;;
25615;SDS011;13482;48.234;13.006;2023-08-07T07:13:45;1.70;;;1.00;;
25615;SDS011;13482;48.234;13.006;2023-08-07T07:16:13;2.00;;;0.70;;
25615;SDS011;13482;48.234;13.006;2023-08-07T07:18:42;2.00;;;0.98;;
25615;SDS011;13482;48.234;13.006;2023-08-07T07:21:13;1.63;;;0.73;;
25615;SDS011;13482;48.234;13.006;2023-08-07T07:23:46;1.45;;;0.88;;
25615;SDS011;13482;48.234;13.006;2023-08-07T07:26:14;0.95;;;0.70;;
25615;SDS011;13482;48.234;13.006;2023-08-07T07:28:42;1.25;;;0.80;;
25615;SDS011;13482;48.234;13.006;2023-08-07T07:31:11;1.23;;;0.70;;
25615;SDS011;13482;48.234;13.006;2023-08-07T07:33:40;1.38;;;0.80;;
25615;SDS011;13482;48.234;13.006;2023-08-07T07:36:14;1.58;;;0.90;;
25615;SDS011;13482;48.234;13.006;2023-08-07T07:38:46;1.77;;;0.90;;
25615;SDS011;13482;48.234;13.006;2023-08-07T07:41:15;1.80;;;0.73;;
25615;SDS011;13482;48.234;13.006;2023-08-07T07:43:44;2.05;;;0.90;;
25615;SDS011;13482;48.234;13.006;2023-08-07T07:46:14;1.77;;;0.80;;
25615;SDS011;13482;48.234;13.006;2023-08-07T07:48:42;1.52;;;0.77;;
25615;SDS011;13482;48.234;13.006;2023-08-07T07:51:10;2.30;;;0.90;;
25615;SDS011;13482;48.234;13.006;2023-08-07T07:53:37;1.25;;;0.70;;
25615;SDS011;13482;48.234;13.006;2023-08-07T07:56:05;1.05;;;0.60;;
25615;SDS011;13482;48.234;13.006;2023-08-07T07:58:33;2.08;;;0.77;;
25615;SDS011;13482;48.234;13.006;2023-08-07T08:01:00;2.53;;;1.95;;
25615;SDS011;13482;48.234;13.006;2023-08-07T08:03:28;3.63;;;1.60;;
25615;SDS011;13482;48.234;13.006;2023-08-07T08:05:55;1.88;;;1.27;;
25615;SDS011;13482;48.234;13.006;2023-08-07T08:08:24;1.67;;;1.10;;
25615;SDS011;13482;48.234;13.006;2023-08-07T08:10:54;1.58;;;0.93;;
25615;SDS011;13482;48.234;13.006;2023-08-07T08:13:21;1.52;;;0.80;;
25615;SDS011;13482;48.234;13.006;2023-08-07T08:15:50;1.20;;;0.73;;
25615;SDS011;13482;48.234;13.006;2023-08-07T08:18:18;2.30;;;0.82;;
25615;SDS011;13482;48.234;13.006;2023-08-07T08:20:45;1.35;;;0.90;;
25615;SDS011;13482;48.234;13.006;2023-08-07T08:23:12;1.50;;;0.90;;
25615;SDS011;13482;48.234;13.006;2023-08-07T08:25:40;1.92;;;1.05;;
25615;SDS011;13482;48.234;13.006;2023-08-07T08:28:07;2.03;;;1.20;;
25615;SDS011;13482;48.234;13.006;2023-08-07T08:30:35;2.20;;;1.27;;
25615;SDS011;13482;48.234;13.006;2023-08-07T08:33:02;1.85;;;0.93;;
25615;SDS011;13482;48.234;13.006;2023-08-07T08:35:31;1.42;;;0.80;;
25615;SDS011;13482;48.234;13.006;2023-08-07T08:37:59;1.95;;;1.00;;
25615;SDS011;13482;48.234;13.006;2023-08-07T08:40:26;1.85;;;0.75;;
25615;SDS011;13482;48.234;13.006;2023-08-07T08:42:54;1.25;;;0.70;;
25615;SDS011;13482;48.234;13.006;2023-08-07T08:48:01;1.23;;;0.60;;
25615;SDS011;13482;48.234;13.006;2023-08-07T08:50:30;1.48;;;0.80;;
25615;SDS011;13482;48.234;13.006;2023-08-07T08:53:00;1.60;;;0.65;;
25615;SDS011;13482;48.234;13.006;2023-08-07T08:55:30;1.85;;;0.80;;
25615;SDS011;13482;48.234;13.006;2023-08-07T08:57:58;2.08;;;0.85;;
25615;SDS011;13482;48.234;13.006;2023-08-07T09:00:27;1.70;;;0.80;;
25615;SDS011;13482;48.234;13.006;2023-08-07T09:02:56;1.00;;;0.65;;
25615;SDS011;13482;48.234;13.006;2023-08-07T09:05:25;1.30;;;0.80;;
25615;SDS011;13482;48.234;13.006;2023-08-07T09:07:54;1.40;;;0.65;;
25615;SDS011;13482;48.234;13.006;2023-08-07T09:10:22;2.33;;;0.90;;
25615;SDS011;13482;48.234;13.006;2023-08-07T09:12:53;1.80;;;0.77;;
25615;SDS011;13482;48.234;13.006;2023-08-07T09:15:28;3.38;;;1.00;;
25615;SDS011;13482;48.234;13.006;2023-08-07T09:17:58;1.63;;;0.90;;
25615;SDS011;13482;48.234;13.006;2023-08-07T09:20:27;1.77;;;0.70;;
25615;SDS011;13482;48.234;13.006;2023-08-07T09:22:55;1.02;;;0.68;;
25615;SDS011;13482;48.234;13.006;2023-08-07T09:25:33;1.65;;;0.90;;
25615;SDS011;13482;48.234;13.006;2023-08-07T09:28:03;2.10;;;1.00;;
25615;SDS011;13482;48.234;13.006;2023-08-07T09:30:35;1.55;;;0.82;;
25615;SDS011;13482;48.234;13.006;2023-08-07T09:33:04;1.40;;;0.70;;
25615;SDS011;13482;48.234;13.006;2023-08-07T09:35:33;1.95;;;0.80;;
25615;SDS011;13482;48.234;13.006;2023-08-07T09:38:01;1.17;;;0.70;;
25615;SDS011;13482;48.234;13.006;2023-08-07T09:40:29;1.30;;;0.70;;
25615;SDS011;13482;48.234;13.006;2023-08-07T09:43:00;1.40;;;0.70;;
25615;SDS011;13482;48.234;13.006;2023-08-07T09:45:29;1.37;;;0.70;;
25615;SDS011;13482;48.234;13.006;2023-08-07T09:48:02;1.50;;;0.70;;
25615;SDS011;13482;48.234;13.006;2023-08-07T09:50:34;1.77;;;0.90;;
25615;SDS011;13482;48.234;13.006;2023-08-07T09:53:02;1.27;;;0.70;;
25615;SDS011;13482;48.234;13.006;2023-08-07T09:55:29;1.70;;;0.70;;
25615;SDS011;13482;48.234;13.006;2023-08-07T09:57:58;1.33;;;0.70;;
25615;SDS011;13482;48.234;13.006;2023-08-07T10:00:32;2.17;;;0.80;;
25615;SDS011;13482;48.234;13.006;2023-08-07T10:03:02;2.10;;;0.88;;
25615;SDS011;13482;48.234;13.006;2023-08-07T10:05:31;0.93;;;0.60;;
25615;SDS011;13482;48.234;13.006;2023-08-07T10:07:59;1.70;;;0.98;;
25615;SDS011;13482;48.234;13.006;2023-08-07T10:10:27;3.33;;;0.80;;
25615;SDS011;13482;48.234;13.006;2023-08-07T10:12:56;3.83;;;0.90;;
25615;SDS011;13482;48.234;13.006;2023-08-07T10:15:27;1.55;;;0.82;;
25615;SDS011;13482;48.234;13.006;2023-08-07T10:17:56;1.63;;;1.10;;
25615;SDS011;13482;48.234;13.006;2023-08-07T10:20:24;2.15;;;0.85;;
25615;SDS011;13482;48.234;13.006;2023-08-07T10:23:06;1.48;;;0.82;;
25615;SDS011;13482;48.234;13.006;2023-08-07T10:25:37;1.95;;;0.82;;
25615;SDS011;13482;48.234;13.006;2023-08-07T10:28:10;1.92;;;0.70;;
25615;SDS011;13482;48.234;13.006;2023-08-07T10:30:43;1.45;;;0.85;;
25615;SDS011;13482;48.234;13.006;2023-08-07T10:33:12;2.10;;;0.73;;
25615;SDS011;13482;48.234;13.006;2023-08-07T10:35:44;1.23;;;0.82;;
25615;SDS011;13482;48.234;13.006;2023-08-07T10:38:18;1.45;;;0.88;;
25615;SDS011;13482;48.234;13.006;2023-08-07T10:43:40;1.27;;;0.68;;
25615;SDS011;13482;48.234;13.006;2023-08-07T10:48:54;1.58;;;0.98;;
25615;SDS011;13482;48.234;13.006;2023-08-07T10:51:29;1.23;;;0.73;;
25615;SDS011;13482;48.234;13.006;2023-08-07T10:54:01;1.50;;;0.80;;
25615;SDS011;13482;48.234;13.006;2023-08-07T10:56:33;1.50;;;0.75;;
25615;SDS011;13482;48.234;13.006;2023-08-07T10:59:11;0.93;;;0.60;;
25615;SDS011;13482;48.234;13.006;2023-08-07T11:01:42;1.58;;;0.80;;
25615;SDS011;13482;48.234;13.006;2023-08-07T11:04:11;1.47;;;0.90;;
25615;SDS011;13482;48.234;13.006;2023-08-07T11:06:43;3.28;;;0.90;;
25615;SDS011;13482;48.234;13.006;2023-08-07T11:09:14;1.50;;;0.82;;
25615;SDS011;13482;48.234;13.006;2023-08-07T11:11:45;1.50;;;0.80;;
25615;SDS011;13482;48.234;13.006;2023-08-07T11:14:16;1.30;;;0.88;;
25615;SDS011;13482;48.234;13.006;2023-08-07T11:16:46;1.10;;;0.52;;
25615;SDS011;13482;48.234;13.006;2023-08-07T11:19:15;1.02;;;0.73;;
25615;SDS011;13482;48.234;13.006;2023-08-07T11:21:45;1.70;;;0.70;;
25615;SDS011;13482;48.234;13.006;2023-08-07T11:24:14;1.90;;;0.80;;
25615;SDS011;13482;48.234;13.006;2023-08-07T11:26:45;1.67;;;0.60;;
25615;SDS011;13482;48.234;13.006;2023-08-07T11:29:16;1.52;;;0.90;;
25615;SDS011;13482;48.234;13.006;2023-08-07T11:31:45;1.38;;;0.80;;
25615;SDS011;13482;48.234;13.006;2023-08-07T11:34:13;1.48;;;0.80;;
25615;SDS011;13482;48.234;13.006;2023-08-07T11:36:42;1.38;;;0.80;;
25615;SDS011;13482;48.234;13.006;2023-08-07T11:39:11;1.38;;;0.80;;
25615;SDS011;13482;48.234;13.006;2023-08-07T11:41:39;1.80;;;0.90;;
25615;SDS011;13482;48.234;13.006;2023-08-07T11:44:07;1.88;;;0.90;;
25615;SDS011;13482;48.234;13.006;2023-08-07T11:46:35;1.42;;;0.90;;
25615;SDS011;13482;48.234;13.006;2023-08-07T11:49:03;1.65;;;0.80;;
25615;SDS011;13482;48.234;13.006;2023-08-07T11:51:31;1.77;;;0.70;;
25615;SDS011;13482;48.234;13.006;2023-08-07T11:53:59;1.05;;;0.70;;
25615;SDS011;13482;48.234;13.006;2023-08-07T11:56:28;1.23;;;0.77;;
25615;SDS011;13482;48.234;13.006;2023-08-07T11:58:56;1.15;;;0.65;;
25615;SDS011;13482;48.234;13.006;2023-08-07T12:01:25;2.67;;;0.80;;
25615;SDS011;13482;48.234;13.006;2023-08-07T12:04:12;1.25;;;0.85;;
25615;SDS011;13482;48.234;13.006;2023-08-07T12:06:51;1.65;;;0.90;;
25615;SDS011;13482;48.234;13.006;2023-08-07T12:09:22;1.45;;;0.82;;
25615;SDS011;13482;48.234;13.006;2023-08-07T12:11:59;1.08;;;0.70;;
25615;SDS011;13482;48.234;13.006;2023-08-07T12:14:30;0.93;;;0.55;;
25615;SDS011;13482;48.234;13.006;2023-08-07T12:17:00;0.98;;;0.70;;
25615;SDS011;13482;48.234;13.006;2023-08-07T12:19:36;2.50;;;0.90;;
25615;SDS011;13482;48.234;13.006;2023-08-07T12:22:09;1.08;;;0.73;;
25615;SDS011;13482;48.234;13.006;2023-08-07T12:24:37;1.20;;;0.70;;
25615;SDS011;13482;48.234;13.006;2023-08-07T12:27:07;1.48;;;0.90;;
25615;SDS011;13482;48.234;13.006;2023-08-07T12:29:34;1.50;;;0.70;;
25615;SDS011;13482;48.234;13.006;2023-08-07T12:32:02;1.33;;;0.80;;
25615;SDS011;13482;48.234;13.006;2023-08-07T12:34:29;1.60;;;0.68;;
25615;SDS011;13482;48.234;13.006;2023-08-07T12:37:00;1.50;;;0.80;;
25615;SDS011;13482;48.234;13.006;2023-08-07T12:39:27;1.20;;;0.70;;
25615;SDS011;13482;48.234;13.006;2023-08-07T12:41:57;1.48;;;0.70;;
25615;SDS011;13482;48.234;13.006;2023-08-07T12:44:28;1.10;;;0.60;;
25615;SDS011;13482;48.234;13.006;2023-08-07T12:46:55;1.10;;;0.60;;
25615;SDS011;13482;48.234;13.006;2023-08-07T12:49:23;1.08;;;0.50;;
25615;SDS011;13482;48.234;13.006;2023-08-07T12:51:51;2.30;;;0.60;;
25615;SDS011;13482;48.234;13.006;2023-08-07T12:54:19;1.42;;;0.70;;
25615;SDS011;13482;48.234;13.006;2023-08-07T12:56:48;1.38;;;0.80;;
25615;SDS011;13482;48.234;13.006;2023-08-07T12:59:15;2.67;;;0.80;;
25615;SDS011;13482;48.234;13.006;2023-08-07T13:01:43;1.17;;;0.60;;
25615;SDS011;13482;48.234;13.006;2023-08-07T13:04:10;1.25;;;0.80;;
25615;SDS011;13482;48.234;13.006;2023-08-07T13:06:41;1.27;;;0.70;;
25615;SDS011;13482;48.234;13.006;2023-08-07T13:09:08;1.10;;;0.70;;
25615;SDS011;13482;48.234;13.006;2023-08-07T13:11:35;1.15;;;0.70;;
25615;SDS011;13482;48.234;13.006;2023-08-07T13:14:03;1.05;;;0.70;;
25615;SDS011;13482;48.234;13.006;2023-08-07T13:16:30;3.95;;;1.35;;
25615;SDS011;13482;48.234;13.006;2023-08-07T13:18:57;1.30;;;0.70;;
25615;SDS011;13482;48.234;13.006;2023-08-07T13:21:25;2.15;;;0.70;;
25615;SDS011;13482;48.234;13.006;2023-08-07T13:23:52;0.98;;;0.60;;
25615;SDS011;13482;48.234;13.006;2023-08-07T13:26:19;1.42;;;0.75;;
25615;SDS011;13482;48.234;13.006;2023-08-07T13:28:47;1.08;;;0.75;;
25615;SDS011;13482;48.234;13.006;2023-08-07T13:31:14;1.40;;;0.70;;
25615;SDS011;13482;48.234;13.006;2023-08-07T13:33:42;1.15;;;0.77;;
25615;SDS011;13482;48.234;13.006;2023-08-07T13:36:09;1.15;;;0.80;;
25615;SDS011;13482;48.234;13.006;2023-08-07T13:38:37;1.27;;;0.82;;
25615;SDS011;13482;48.234;13.006;2023-08-07T13:41:04;1.27;;;0.70;;
25615;SDS011;13482;48.234;13.006;2023-08-07T13:43:32;1.20;;;0.68;;
25615;SDS011;13482;48.234;13.006;2023-08-07T13:45:59;1.23;;;0.80;;
25615;SDS011;13482;48.234;13.006;2023-08-07T13:48:26;1.10;;;0.70;;
25615;SDS011;13482;48.234;13.006;2023-08-07T13:50:54;1.85;;;0.70;;
25615;SDS011;13482;48.234;13.006;2023-08-07T13:53:22;1.40;;;0.70;;
25615;SDS011;13482;48.234;13.006;2023-08-07T13:55:50;1.45;;;0.80;;
25615;SDS011;13482;48.234;13.006;2023-08-07T13:58:17;1.10;;;0.60;;
25615;SDS011;13482;48.234;13.006;2023-08-07T14:00:45;1.48;;;0.65;;
25615;SDS011;13482;48.234;13.006;2023-08-07T14:03:13;1.00;;;0.60;;
25615;SDS011;13482;48.234;13.006;2023-08-07T14:05:41;1.15;;;0.60;;
25615;SDS011;13482;48.234;13.006;2023-08-07T14:08:08;0.55;;;0.45;;
25615;SDS011;13482;48.234;13.006;2023-08-07T14:10:38;1.33;;;0.70;;
25615;SDS011;13482;48.234;13.006;2023-08-07T14:13:27;0.82;;;0.50;;
25615;SDS011;13482;48.234;13.006;2023-08-07T14:15:59;2.08;;;0.70;;
25615;SDS011;13482;48.234;13.006;2023-08-07T14:18:26;1.10;;;0.68;;
25615;SDS011;13482;48.234;13.006;2023-08-07T14:20:54;1.45;;;0.70;;
25615;SDS011;13482;48.234;13.006;2023-08-07T14:23:28;1.90;;;0.60;;
25615;SDS011;13482;48.234;13.006;2023-08-07T14:26:00;1.52;;;0.90;;
25615;SDS011;13482;48.234;13.006;2023-08-07T14:28:28;1.10;;;0.70;;
25615;SDS011;13482;48.234;13.006;2023-08-07T14:30:58;1.73;;;0.80;;
25615;SDS011;13482;48.234;13.006;2023-08-07T14:33:27;1.95;;;0.60;;
25615;SDS011;13482;48.234;13.006;2023-08-07T14:35:56;1.00;;;0.50;;
25615;SDS011;13482;48.234;13.006;2023-08-07T14:38:23;0.98;;;0.50;;
25615;SDS011;13482;48.234;13.006;2023-08-07T14:40:50;1.30;;;0.60;;
25615;SDS011;13482;48.234;13.006;2023-08-07T14:43:18;0.88;;;0.57;;
25615;SDS011;13482;48.234;13.006;2023-08-07T14:45:46;1.77;;;0.50;;
25615;SDS011;13482;48.234;13.006;2023-08-07T14:48:13;1.30;;;0.60;;
25615;SDS011;13482;48.234;13.006;2023-08-07T14:50:42;1.33;;;0.70;;
25615;SDS011;13482;48.234;13.006;2023-08-07T14:53:09;1.15;;;0.70;;
25615;SDS011;13482;48.234;13.006;2023-08-07T14:55:36;1.15;;;0.70;;
25615;SDS011;13482;48.234;13.006;2023-08-07T14:58:04;0.73;;;0.50;;
25615;SDS011;13482;48.234;13.006;2023-08-07T15:00:34;1.77;;;0.85;;
25615;SDS011;13482;48.234;13.006;2023-08-07T15:03:02;1.20;;;0.60;;